sensor_id;sensor_type;location;lat;lon;timestamp;temperature;humidity
23713;DHT22;12035;49.978;8.298;2023-10-09T00:02:26;19.80;59.90
23713;DHT22;12035;49.978;8.298;2023-10-09T00:07:26;19.80;59.90
23713;DHT22;12035;49.978;8.298;2023-10-09T00:12:25;19.80;59.90
23713;DHT22;12035;49.978;8.298;2023-10-09T00:17:24;19.80;60.00
23713;DHT22;12035;49.978;8.298;2023-10-09T00:22:27;19.70;60.20
23713;DHT22;12035;49.978;8.298;2023-10-09T00:27:26;19.60;60.40
23713;DHT22;12035;49.978;8.298;2023-10-09T00:32:26;19.60;60.80
23713;DHT22;12035;49.978;8.298;2023-10-09T00:37:29;19.50;60.90
23713;DHT22;12035;49.978;8.298;2023-10-09T00:42:29;19.60;61.10
23713;DHT22;12035;49.978;8.298;2023-10-09T00:47:29;19.60;61.00
23713;DHT22;12035;49.978;8.298;2023-10-09T00:52:32;19.60;61.10
23713;DHT22;12035;49.978;8.298;2023-10-09T00:57:34;19.60;61.30
23713;DHT22;12035;49.978;8.298;2023-10-09T01:02:34;19.60;61.30
23713;DHT22;12035;49.978;8.298;2023-10-09T01:07:33;19.60;61.10
23713;DHT22;12035;49.978;8.298;2023-10-09T01:12:30;19.60;61.10
23713;DHT22;12035;49.978;8.298;2023-10-09T01:17:27;19.50;61.10
23713;DHT22;12035;49.978;8.298;2023-10-09T01:22:31;19.50;61.30
23713;DHT22;12035;49.978;8.298;2023-10-09T01:27:30;19.50;61.40
23713;DHT22;12035;49.978;8.298;2023-10-09T01:32:27;19.40;61.70
23713;DHT22;12035;49.978;8.298;2023-10-09T01:37:24;19.50;61.70
23713;DHT22;12035;49.978;8.298;2023-10-09T01:42:24;19.50;61.70
23713;DHT22;12035;49.978;8.298;2023-10-09T01:47:30;19.50;61.70
23713;DHT22;12035;49.978;8.298;2023-10-09T01:52:27;19.50;61.70
23713;DHT22;12035;49.978;8.298;2023-10-09T01:57:25;19.50;61.70
23713;DHT22;12035;49.978;8.298;2023-10-09T02:02:25;19.40;61.60
23713;DHT22;12035;49.978;8.298;2023-10-09T02:07:24;19.40;61.70
23713;DHT22;12035;49.978;8.298;2023-10-09T02:12:24;19.40;61.80
23713;DHT22;12035;49.978;8.298;2023-10-09T02:17:29;19.40;61.80
23713;DHT22;12035;49.978;8.298;2023-10-09T02:22:31;19.40;61.70
23713;DHT22;12035;49.978;8.298;2023-10-09T02:27:30;19.40;61.90
23713;DHT22;12035;49.978;8.298;2023-10-09T02:32:49;19.30;61.90
23713;DHT22;12035;49.978;8.298;2023-10-09T02:37:50;19.30;62.00
23713;DHT22;12035;49.978;8.298;2023-10-09T02:42:48;19.30;62.10
23713;DHT22;12035;49.978;8.298;2023-10-09T02:47:46;19.30;62.10
23713;DHT22;12035;49.978;8.298;2023-10-09T02:52:43;19.30;62.10
23713;DHT22;12035;49.978;8.298;2023-10-09T02:57:44;19.30;62.10
23713;DHT22;12035;49.978;8.298;2023-10-09T03:02:41;19.30;62.30
23713;DHT22;12035;49.978;8.298;2023-10-09T03:07:38;19.20;62.10
23713;DHT22;12035;49.978;8.298;2023-10-09T03:12:35;19.20;62.20
23713;DHT22;12035;49.978;8.298;2023-10-09T03:17:36;19.20;62.30
23713;DHT22;12035;49.978;8.298;2023-10-09T03:22:33;19.20;62.60
23713;DHT22;12035;49.978;8.298;2023-10-09T03:27:31;19.10;62.60
23713;DHT22;12035;49.978;8.298;2023-10-09T03:32:28;19.20;62.80
23713;DHT22;12035;49.978;8.298;2023-10-09T03:37:26;19.10;62.60
23713;DHT22;12035;49.978;8.298;2023-10-09T03:42:30;19.10;62.80
23713;DHT22;12035;49.978;8.298;2023-10-09T03:47:29;19.10;62.70
23713;DHT22;12035;49.978;8.298;2023-10-09T03:52:28;19.00;63.60
23713;DHT22;12035;49.978;8.298;2023-10-09T03:57:26;19.00;62.90
23713;DHT22;12035;49.978;8.298;2023-10-09T04:02:23;19.00;63.00
23713;DHT22;12035;49.978;8.298;2023-10-09T04:07:21;19.00;63.20
23713;DHT22;12035;49.978;8.298;2023-10-09T04:12:19;18.90;63.20
23713;DHT22;12035;49.978;8.298;2023-10-09T04:17:18;18.90;63.30
23713;DHT22;12035;49.978;8.298;2023-10-09T04:22:29;18.90;63.30
23713;DHT22;12035;49.978;8.298;2023-10-09T04:27:35;18.90;63.30
23713;DHT22;12035;49.978;8.298;2023-10-09T04:32:33;18.90;63.40
23713;DHT22;12035;49.978;8.298;2023-10-09T04:37:31;18.90;63.60
23713;DHT22;12035;49.978;8.298;2023-10-09T04:42:34;18.90;63.80
23713;DHT22;12035;49.978;8.298;2023-10-09T04:47:41;18.80;63.90
23713;DHT22;12035;49.978;8.298;2023-10-09T04:52:53;18.80;63.90
23713;DHT22;12035;49.978;8.298;2023-10-09T04:57:51;18.80;64.00
23713;DHT22;12035;49.978;8.298;2023-10-09T05:03:04;18.80;64.30
23713;DHT22;12035;49.978;8.298;2023-10-09T05:08:06;18.80;64.30
23713;DHT22;12035;49.978;8.298;2023-10-09T05:13:16;18.80;65.20
23713;DHT22;12035;49.978;8.298;2023-10-09T05:18:34;18.80;64.60
23713;DHT22;12035;49.978;8.298;2023-10-09T05:23:32;18.80;64.40
23713;DHT22;12035;49.978;8.298;2023-10-09T05:28:41;18.70;64.50
23713;DHT22;12035;49.978;8.298;2023-10-09T05:33:48;18.70;64.60
23713;DHT22;12035;49.978;8.298;2023-10-09T05:38:48;18.70;64.70
23713;DHT22;12035;49.978;8.298;2023-10-09T05:43:55;18.60;64.70
23713;DHT22;12035;49.978;8.298;2023-10-09T05:49:18;18.60;64.90
23713;DHT22;12035;49.978;8.298;2023-10-09T05:54:20;18.60;64.80
23713;DHT22;12035;49.978;8.298;2023-10-09T05:59:41;18.60;65.10
23713;DHT22;12035;49.978;8.298;2023-10-09T06:04:56;18.60;65.20
23713;DHT22;12035;49.978;8.298;2023-10-09T06:09:53;18.60;65.20
23713;DHT22;12035;49.978;8.298;2023-10-09T06:14:52;18.60;65.20
23713;DHT22;12035;49.978;8.298;2023-10-09T06:20:14;18.60;66.00
23713;DHT22;12035;49.978;8.298;2023-10-09T06:25:25;18.60;65.20
23713;DHT22;12035;49.978;8.298;2023-10-09T06:30:29;18.60;65.20
23713;DHT22;12035;49.978;8.298;2023-10-09T06:35:34;18.60;65.20
23713;DHT22;12035;49.978;8.298;2023-10-09T06:40:32;18.60;65.50
23713;DHT22;12035;49.978;8.298;2023-10-09T06:45:52;18.60;65.50
23713;DHT22;12035;49.978;8.298;2023-10-09T06:50:51;18.70;66.40
23713;DHT22;12035;49.978;8.298;2023-10-09T06:55:59;18.70;65.60
23713;DHT22;12035;49.978;8.298;2023-10-09T07:01:03;18.70;65.60
23713;DHT22;12035;49.978;8.298;2023-10-09T07:06:14;18.70;65.70
23713;DHT22;12035;49.978;8.298;2023-10-09T07:11:20;18.80;65.50
23713;DHT22;12035;49.978;8.298;2023-10-09T07:16:45;18.80;65.40
23713;DHT22;12035;49.978;8.298;2023-10-09T07:21:52;18.80;65.40
23713;DHT22;12035;49.978;8.298;2023-10-09T07:26:50;18.90;65.40
23713;DHT22;12035;49.978;8.298;2023-10-09T07:31:52;18.90;65.50
23713;DHT22;12035;49.978;8.298;2023-10-09T07:36:53;18.90;65.70
23713;DHT22;12035;49.978;8.298;2023-10-09T07:41:52;18.90;65.70
23713;DHT22;12035;49.978;8.298;2023-10-09T07:47:12;19.00;65.90
23713;DHT22;12035;49.978;8.298;2023-10-09T07:52:19;19.00;66.00
23713;DHT22;12035;49.978;8.298;2023-10-09T07:57:19;19.10;66.00
23713;DHT22;12035;49.978;8.298;2023-10-09T08:02:22;19.20;65.90
23713;DHT22;12035;49.978;8.298;2023-10-09T08:07:27;19.20;66.00
23713;DHT22;12035;49.978;8.298;2023-10-09T08:12:29;19.30;66.20
23713;DHT22;12035;49.978;8.298;2023-10-09T08:17:55;19.30;66.30
23713;DHT22;12035;49.978;8.298;2023-10-09T08:22:55;19.40;66.30
23713;DHT22;12035;49.978;8.298;2023-10-09T08:27:53;19.50;66.30
23713;DHT22;12035;49.978;8.298;2023-10-09T08:32:54;19.60;66.10
23713;DHT22;12035;49.978;8.298;2023-10-09T08:38:06;19.60;65.90
23713;DHT22;12035;49.978;8.298;2023-10-09T08:43:09;19.70;65.80
23713;DHT22;12035;49.978;8.298;2023-10-09T08:48:09;19.70;67.00
23713;DHT22;12035;49.978;8.298;2023-10-09T08:53:11;19.70;66.50
23713;DHT22;12035;49.978;8.298;2023-10-09T08:58:09;19.70;66.40
23713;DHT22;12035;49.978;8.298;2023-10-09T09:03:15;19.60;66.30
23713;DHT22;12035;49.978;8.298;2023-10-09T09:08:21;19.60;66.30
23713;DHT22;12035;49.978;8.298;2023-10-09T09:13:20;19.60;66.50
23713;DHT22;12035;49.978;8.298;2023-10-09T09:18:19;19.60;66.40
23713;DHT22;12035;49.978;8.298;2023-10-09T09:23:17;19.70;66.40
23713;DHT22;12035;49.978;8.298;2023-10-09T09:28:19;19.70;66.40
23713;DHT22;12035;49.978;8.298;2023-10-09T09:33:19;19.80;66.50
23713;DHT22;12035;49.978;8.298;2023-10-09T09:38:35;19.80;66.50
23713;DHT22;12035;49.978;8.298;2023-10-09T09:43:43;19.80;66.50
23713;DHT22;12035;49.978;8.298;2023-10-09T09:48:44;19.90;66.60
23713;DHT22;12035;49.978;8.298;2023-10-09T09:53:43;20.00;66.60
23713;DHT22;12035;49.978;8.298;2023-10-09T09:58:43;20.20;66.70
23713;DHT22;12035;49.978;8.298;2023-10-09T10:03:47;20.20;66.70
23713;DHT22;12035;49.978;8.298;2023-10-09T10:08:48;20.30;67.00
23713;DHT22;12035;49.978;8.298;2023-10-09T10:13:56;20.40;67.40
23713;DHT22;12035;49.978;8.298;2023-10-09T10:18:59;20.40;67.70
23713;DHT22;12035;49.978;8.298;2023-10-09T10:24:02;20.40;67.50
23713;DHT22;12035;49.978;8.298;2023-10-09T10:29:16;20.50;67.60
23713;DHT22;12035;49.978;8.298;2023-10-09T10:34:20;20.60;67.80
23713;DHT22;12035;49.978;8.298;2023-10-09T10:39:19;20.70;67.20
23713;DHT22;12035;49.978;8.298;2023-10-09T10:44:33;20.80;67.30
23713;DHT22;12035;49.978;8.298;2023-10-09T10:49:34;20.90;67.30
23713;DHT22;12035;49.978;8.298;2023-10-09T10:54:36;21.00;66.70
23713;DHT22;12035;49.978;8.298;2023-10-09T10:59:42;21.10;65.10
23713;DHT22;12035;49.978;8.298;2023-10-09T11:04:41;21.30;64.50
23713;DHT22;12035;49.978;8.298;2023-10-09T11:09:46;21.50;63.40
23713;DHT22;12035;49.978;8.298;2023-10-09T11:15:05;21.80;61.90
23713;DHT22;12035;49.978;8.298;2023-10-09T11:20:06;22.10;61.00
23713;DHT22;12035;49.978;8.298;2023-10-09T11:25:32;22.30;59.70
23713;DHT22;12035;49.978;8.298;2023-10-09T11:30:31;22.60;58.90
23713;DHT22;12035;49.978;8.298;2023-10-09T11:35:30;22.80;57.90
23713;DHT22;12035;49.978;8.298;2023-10-09T11:40:32;23.10;56.60
23713;DHT22;12035;49.978;8.298;2023-10-09T11:45:45;23.40;55.80
23713;DHT22;12035;49.978;8.298;2023-10-09T11:50:52;23.70;55.00
23713;DHT22;12035;49.978;8.298;2023-10-09T11:55:53;23.90;53.80
23713;DHT22;12035;49.978;8.298;2023-10-09T12:00:51;24.00;53.70
23713;DHT22;12035;49.978;8.298;2023-10-09T12:05:52;24.20;53.20
23713;DHT22;12035;49.978;8.298;2023-10-09T12:10:49;24.30;52.70
23713;DHT22;12035;49.978;8.298;2023-10-09T12:15:52;24.40;52.30
23713;DHT22;12035;49.978;8.298;2023-10-09T12:20:49;24.50;51.40
23713;DHT22;12035;49.978;8.298;2023-10-09T12:25:49;24.70;50.80
23713;DHT22;12035;49.978;8.298;2023-10-09T12:30:47;24.80;49.80
23713;DHT22;12035;49.978;8.298;2023-10-09T12:35:47;25.00;49.50
23713;DHT22;12035;49.978;8.298;2023-10-09T12:40:44;25.00;48.60
23713;DHT22;12035;49.978;8.298;2023-10-09T12:45:47;25.10;48.00
23713;DHT22;12035;49.978;8.298;2023-10-09T12:50:44;25.10;48.40
23713;DHT22;12035;49.978;8.298;2023-10-09T12:55:42;25.10;48.30
23713;DHT22;12035;49.978;8.298;2023-10-09T13:00:40;25.10;48.00
23713;DHT22;12035;49.978;8.298;2023-10-09T13:05:45;25.10;48.10
23713;DHT22;12035;49.978;8.298;2023-10-09T13:10:51;25.10;47.60
23713;DHT22;12035;49.978;8.298;2023-10-09T13:15:56;25.10;46.70
23713;DHT22;12035;49.978;8.298;2023-10-09T13:20:53;25.10;46.40
23713;DHT22;12035;49.978;8.298;2023-10-09T13:25:51;25.10;46.20
23713;DHT22;12035;49.978;8.298;2023-10-09T13:30:48;25.10;46.00
23713;DHT22;12035;49.978;8.298;2023-10-09T13:35:46;25.20;46.40
23713;DHT22;12035;49.978;8.298;2023-10-09T13:40:46;25.20;46.50
23713;DHT22;12035;49.978;8.298;2023-10-09T13:45:46;25.20;46.70
23713;DHT22;12035;49.978;8.298;2023-10-09T13:50:45;25.20;46.40
23713;DHT22;12035;49.978;8.298;2023-10-09T13:55:42;25.30;46.70
23713;DHT22;12035;49.978;8.298;2023-10-09T14:00:40;25.30;46.80
23713;DHT22;12035;49.978;8.298;2023-10-09T14:05:40;25.30;47.00
23713;DHT22;12035;49.978;8.298;2023-10-09T14:10:51;25.40;47.10
23713;DHT22;12035;49.978;8.298;2023-10-09T14:15:48;25.40;47.10
23713;DHT22;12035;49.978;8.298;2023-10-09T14:20:47;25.50;47.20
23713;DHT22;12035;49.978;8.298;2023-10-09T14:25:45;25.50;47.00
23713;DHT22;12035;49.978;8.298;2023-10-09T14:30:45;25.50;47.40
23713;DHT22;12035;49.978;8.298;2023-10-09T14:35:47;25.50;47.70
23713;DHT22;12035;49.978;8.298;2023-10-09T14:40:45;25.50;47.30
23713;DHT22;12035;49.978;8.298;2023-10-09T14:45:43;25.50;47.30
23713;DHT22;12035;49.978;8.298;2023-10-09T14:50:47;25.50;47.20
23713;DHT22;12035;49.978;8.298;2023-10-09T14:55:45;25.50;47.70
23713;DHT22;12035;49.978;8.298;2023-10-09T15:00:43;25.50;47.80
23713;DHT22;12035;49.978;8.298;2023-10-09T15:05:42;25.50;47.80
23713;DHT22;12035;49.978;8.298;2023-10-09T15:10:48;25.50;47.90
23713;DHT22;12035;49.978;8.298;2023-10-09T15:15:47;25.50;47.90
23713;DHT22;12035;49.978;8.298;2023-10-09T15:20:46;25.40;48.20
23713;DHT22;12035;49.978;8.298;2023-10-09T15:25:44;25.30;48.50
23713;DHT22;12035;49.978;8.298;2023-10-09T15:30:47;25.30;48.70
23713;DHT22;12035;49.978;8.298;2023-10-09T15:35:45;25.20;49.00
23713;DHT22;12035;49.978;8.298;2023-10-09T15:40:42;25.20;49.30
23713;DHT22;12035;49.978;8.298;2023-10-09T15:45:43;25.10;49.40
23713;DHT22;12035;49.978;8.298;2023-10-09T15:50:45;25.10;49.60
23713;DHT22;12035;49.978;8.298;2023-10-09T15:55:44;25.00;49.80
23713;DHT22;12035;49.978;8.298;2023-10-09T16:00:43;25.00;49.90
23713;DHT22;12035;49.978;8.298;2023-10-09T16:05:42;24.90;50.00
23713;DHT22;12035;49.978;8.298;2023-10-09T16:10:39;24.90;50.80
23713;DHT22;12035;49.978;8.298;2023-10-09T16:15:40;24.80;50.40
23713;DHT22;12035;49.978;8.298;2023-10-09T16:20:39;24.80;50.70
23713;DHT22;12035;49.978;8.298;2023-10-09T16:25:38;24.70;50.90
23713;DHT22;12035;49.978;8.298;2023-10-09T16:30:36;24.60;51.20
23713;DHT22;12035;49.978;8.298;2023-10-09T16:35:33;24.60;51.30
23713;DHT22;12035;49.978;8.298;2023-10-09T16:40:33;24.50;51.40
23713;DHT22;12035;49.978;8.298;2023-10-09T16:45:31;24.40;51.60
23713;DHT22;12035;49.978;8.298;2023-10-09T16:50:31;24.30;51.90
23713;DHT22;12035;49.978;8.298;2023-10-09T16:55:30;24.30;52.10
23713;DHT22;12035;49.978;8.298;2023-10-09T17:00:27;24.20;52.20
23713;DHT22;12035;49.978;8.298;2023-10-09T17:05:31;24.10;52.40
23713;DHT22;12035;49.978;8.298;2023-10-09T17:10:33;24.00;52.30
23713;DHT22;12035;49.978;8.298;2023-10-09T17:15:34;24.00;51.80
23713;DHT22;12035;49.978;8.298;2023-10-09T17:20:39;23.90;51.90
23713;DHT22;12035;49.978;8.298;2023-10-09T17:25:44;23.90;52.00
23713;DHT22;12035;49.978;8.298;2023-10-09T17:30:41;23.80;51.30
23713;DHT22;12035;49.978;8.298;2023-10-09T17:35:40;23.80;51.10
23713;DHT22;12035;49.978;8.298;2023-10-09T17:40:44;23.70;51.10
23713;DHT22;12035;49.978;8.298;2023-10-09T17:45:47;23.60;51.20
23713;DHT22;12035;49.978;8.298;2023-10-09T17:50:50;23.60;51.30
23713;DHT22;12035;49.978;8.298;2023-10-09T17:55:52;23.60;51.40
23713;DHT22;12035;49.978;8.298;2023-10-09T18:00:52;23.50;51.20
23713;DHT22;12035;49.978;8.298;2023-10-09T18:05:55;23.40;51.00
23713;DHT22;12035;49.978;8.298;2023-10-09T18:10:57;23.40;51.10
23713;DHT22;12035;49.978;8.298;2023-10-09T18:16:02;23.30;50.90
23713;DHT22;12035;49.978;8.298;2023-10-09T18:21:05;23.30;50.80
23713;DHT22;12035;49.978;8.298;2023-10-09T18:26:06;23.20;50.70
23713;DHT22;12035;49.978;8.298;2023-10-09T18:31:06;23.20;50.60
23713;DHT22;12035;49.978;8.298;2023-10-09T18:36:09;23.10;50.60
23713;DHT22;12035;49.978;8.298;2023-10-09T18:41:10;23.10;50.50
23713;DHT22;12035;49.978;8.298;2023-10-09T18:46:08;23.10;50.40
23713;DHT22;12035;49.978;8.298;2023-10-09T18:54:25;23.10;50.30
23713;DHT22;12035;49.978;8.298;2023-10-09T18:59:22;23.10;50.30
23713;DHT22;12035;49.978;8.298;2023-10-09T19:04:19;23.10;50.30
23713;DHT22;12035;49.978;8.298;2023-10-09T19:09:16;23.10;50.40
23713;DHT22;12035;49.978;8.298;2023-10-09T19:14:20;23.00;50.40
23713;DHT22;12035;49.978;8.298;2023-10-09T19:19:17;23.00;50.40
23713;DHT22;12035;49.978;8.298;2023-10-09T19:24:14;23.00;50.60
23713;DHT22;12035;49.978;8.298;2023-10-09T19:29:11;23.00;50.70
23713;DHT22;12035;49.978;8.298;2023-10-09T19:34:10;23.00;50.80
23713;DHT22;12035;49.978;8.298;2023-10-09T19:39:08;23.00;51.00
23713;DHT22;12035;49.978;8.298;2023-10-09T19:44:07;22.90;51.10
23713;DHT22;12035;49.978;8.298;2023-10-09T19:49:04;22.90;51.30
23713;DHT22;12035;49.978;8.298;2023-10-09T19:54:03;22.90;51.50
23713;DHT22;12035;49.978;8.298;2023-10-09T19:59:00;22.80;51.80
23713;DHT22;12035;49.978;8.298;2023-10-09T20:03:57;22.80;52.00
23713;DHT22;12035;49.978;8.298;2023-10-09T20:08:54;22.80;52.10
23713;DHT22;12035;49.978;8.298;2023-10-09T20:13:52;22.80;52.20
23713;DHT22;12035;49.978;8.298;2023-10-09T20:18:49;22.70;52.30
23713;DHT22;12035;49.978;8.298;2023-10-09T20:23:50;22.70;52.20
23713;DHT22;12035;49.978;8.298;2023-10-09T20:28:47;22.70;52.20
23713;DHT22;12035;49.978;8.298;2023-10-09T20:33:45;22.60;52.20
23713;DHT22;12035;49.978;8.298;2023-10-09T20:38:43;22.60;52.30
23713;DHT22;12035;49.978;8.298;2023-10-09T20:43:45;22.60;52.20
23713;DHT22;12035;49.978;8.298;2023-10-09T20:48:43;22.60;52.30
23713;DHT22;12035;49.978;8.298;2023-10-09T20:53:41;22.50;52.30
23713;DHT22;12035;49.978;8.298;2023-10-09T20:58:39;22.50;52.40
23713;DHT22;12035;49.978;8.298;2023-10-09T21:03:36;22.40;52.40
23713;DHT22;12035;49.978;8.298;2023-10-09T21:08:34;22.40;52.50
23713;DHT22;12035;49.978;8.298;2023-10-09T21:13:31;22.40;52.50
23713;DHT22;12035;49.978;8.298;2023-10-09T21:18:28;22.30;52.50
23713;DHT22;12035;49.978;8.298;2023-10-09T21:23:25;22.30;52.80
23713;DHT22;12035;49.978;8.298;2023-10-09T21:28:24;22.20;52.90
23713;DHT22;12035;49.978;8.298;2023-10-09T21:33:21;22.20;53.20
23713;DHT22;12035;49.978;8.298;2023-10-09T21:38:18;22.10;53.30
23713;DHT22;12035;49.978;8.298;2023-10-09T21:43:15;22.10;53.50
23713;DHT22;12035;49.978;8.298;2023-10-09T21:48:15;22.00;53.70
23713;DHT22;12035;49.978;8.298;2023-10-09T21:53:12;21.90;54.30
23713;DHT22;12035;49.978;8.298;2023-10-09T21:58:09;21.90;54.00
23713;DHT22;12035;49.978;8.298;2023-10-09T22:03:07;21.80;54.20
23713;DHT22;12035;49.978;8.298;2023-10-09T22:08:07;21.80;54.40
23713;DHT22;12035;49.978;8.298;2023-10-09T22:13:05;21.70;54.30
23713;DHT22;12035;49.978;8.298;2023-10-09T22:18:03;21.70;54.40
23713;DHT22;12035;49.978;8.298;2023-10-09T22:23:06;21.70;54.60
23713;DHT22;12035;49.978;8.298;2023-10-09T22:28:09;21.60;54.60
23713;DHT22;12035;49.978;8.298;2023-10-09T22:33:06;21.60;54.70
23713;DHT22;12035;49.978;8.298;2023-10-09T22:38:09;21.50;54.50
23713;DHT22;12035;49.978;8.298;2023-10-09T22:43:08;21.40;54.60
23713;DHT22;12035;49.978;8.298;2023-10-09T22:48:06;21.40;54.60
23713;DHT22;12035;49.978;8.298;2023-10-09T22:53:05;21.40;54.70
23713;DHT22;12035;49.978;8.298;2023-10-09T22:58:09;21.30;54.80
23713;DHT22;12035;49.978;8.298;2023-10-09T23:03:11;21.30;54.80
23713;DHT22;12035;49.978;8.298;2023-10-09T23:08:21;21.20;54.80
23713;DHT22;12035;49.978;8.298;2023-10-09T23:13:20;21.20;55.00
23713;DHT22;12035;49.978;8.298;2023-10-09T23:18:29;21.10;55.00
23713;DHT22;12035;49.978;8.298;2023-10-09T23:23:27;21.10;55.00
23713;DHT22;12035;49.978;8.298;2023-10-09T23:28:32;21.00;55.10
23713;DHT22;12035;49.978;8.298;2023-10-09T23:33:35;21.00;55.20
23713;DHT22;12035;49.978;8.298;2023-10-09T23:38:33;21.00;55.20
23713;DHT22;12035;49.978;8.298;2023-10-09T23:43:31;20.90;55.40
23713;DHT22;12035;49.978;8.298;2023-10-09T23:48:30;20.90;55.50
23713;DHT22;12035;49.978;8.298;2023-10-09T23:53:29;20.80;55.40
23713;DHT22;12035;49.978;8.298;2023-10-09T23:58:29;20.80;55.50
